CheckWX is a tool to help pilots better visualize weather data.  It is not intended as a substitute for an official pre-flight weather briefing.

23:49:13 UTC

KLWM METAR
Lawrence Municipal Airport
Lawrence, Massachusetts, USA
Current

55 mins ago

KLWM 222254Z 08008G16KT 2 1/2SM BR BKN007 OVC011 12/11 A3006 RMK AO2 CIG 005V009 SLP180 T01170106
Observed
Oct-22 @ 22:54 UTC
Wind
  • 080° at 8 KTS
  • Gusting to 16 KTS
Visibility
2 1/2 SM
Flight Rules
IFR
Conditions
Mist
Cloud Levels
  • Broken at 700' AGL
  • Overcast at 1,100' AGL
Temperature
12°C / 54°F
Dewpoint
11°C / 52°F
Humidity
94%
Altimeter
30.06" Hg
Pressure
1017.92 hPa
Previous

1 hour ago

KLWM 222224Z 07006KT 7SM OVC012 12/11 A3007 RMK AO2 T01170106
Observed
Oct-22 @ 22:24 UTC
Wind
  • 070° at 6 KTS
Visibility
7 SM
Flight Rules
MVFR
Cloud Levels
  • Overcast at 1,200' AGL
Temperature
12°C / 54°F
Dewpoint
11°C / 52°F
Humidity
94%
Altimeter
30.07" Hg
Pressure
1018.32 hPa
Previous

2 hours ago

KLWM 222154Z 06008KT 10SM BKN010 OVC019 12/10 A3007 RMK AO2 SLP183 T01220100
Observed
Oct-22 @ 21:54 UTC
Wind
  • 060° at 8 KTS
Visibility
10 SM
Flight Rules
MVFR
Cloud Levels
  • Broken at 1,000' AGL
  • Overcast at 1,900' AGL
Temperature
12°C / 54°F
Dewpoint
10°C / 50°F
Humidity
88%
Altimeter
30.07" Hg
Pressure
1018.32 hPa